Charlottetown, Prince Edward Island

8:05 PM ADT on September 01, 2014 (GMT -0300)
Charlottetown | Change Station
CLOSE
Current Station
Airport
Location: Charlottetown,
Elevation: 157 ft
Nearby Weather Stations

Elev 157 ft 46.29 °N, 63.13 °W | Updated 1 hour ago

Mostly Cloudy
Mostly Cloudy
64 °F
Feels Like 64 °F
N
9
Wind Variable Wind from NNE

Tomorrow is forecast to be nearly the same temperature as today.

Today
High -- | Low -- °F
--% Chance of Precip.
Yesterday
High -- | Low -- °F
Precip. -- in
6:32 AM 7:51 PM
Waxing Crescent, 45% visible
Pressure 29.99 in
Visibility 15.0 miles
Clouds Few 600 ft
Mostly Cloudy 2400 ft
Mostly Cloudy 8000 ft
Dew Point 63 °F
Humidity 94%
Rainfall 0.00 in
Snow Depth Not available.
UV 0 out of 12
Pollen Not available.
Air Quality Not available.
Flu Activity Not available.
METAR CYYG 012200Z 03008KT 15SM FEW006 BKN024 BKN080 18/17 A2999 RMK SF2SC4AC1 SLP154 DENSITY ALT 400FT

More Conditions Fewer Conditions

Pressure 29.99 in
Visibility 15.0 miles
Clouds Few 600 ft
Mostly Cloudy 2400 ft
Mostly Cloudy 8000 ft
Dew Point 63 °F
Humidity 94%
Rainfall 0.00 in
Snow Depth Not available.
UV 0 out of 12
Pollen Not available.
Air Quality Not available.
Flu Activity Not available.
METAR CYYG 012200Z 03008KT 15SM FEW006 BKN024 BKN080 18/17 A2999 RMK SF2SC4AC1 SLP154 DENSITY ALT 400FT

More Conditions Fewer Conditions

10-Day Weather Forecast

Almanac

Astronomy

Sep. 01, 2014 Rise Set
Actual Time 6:32 AM ADT 7:51 PM ADT
Civil Twilight 6:01 AM ADT 8:22 PM ADT
Nautical Twilight 5:24 AM ADT 8:59 PM ADT
Astronomical Twilight 4:44 AM ADT 9:39 PM ADT
Moon 1:37 PM ADT 11:25 PM ADT
Length of Visible Light 14h 20m
Length of Day
13h 18m
Tomorrow will be 3m 10s shorter.
Waxing Crescent, 45% of the Moon is Illuminated
Today
Waxing Crescent
Sep 2
First Quarter
Sep 8
Full
Sep 15
Last Quarter
Sep 24
New

Today's Extremes

Country Highs Country Lows

Community

WunderPhotos

Upload Photos

1,749,427 photos uploaded!

Nearby

Snow Depth

Not available.

Earthquake Activity

City Distance Mag. Time & Date
No recent earthquake activity has been reported nearby.
Minimum magnitude displayed is 2.5.

Coastal Water Temperatures

Place Temperature
No Stations Reporting

Nearby Weather Stations